sensor_id;sensor_type;location;lat;lon;timestamp;pressure;altitude;pressure_sealevel;temperature;humidity
41862;BME280;27537;57.134;-2.136;2023-03-04T00:00:24;102507.09;;;4.37;100.00
41862;BME280;27537;57.134;-2.136;2023-03-04T00:02:51;102553.44;;;4.71;100.00
41862;BME280;27537;57.134;-2.136;2023-03-04T00:05:18;102547.09;;;4.52;100.00
41862;BME280;27537;57.134;-2.136;2023-03-04T00:07:45;102541.81;;;4.47;100.00
41862;BME280;27537;57.134;-2.136;2023-03-04T00:10:11;102534.75;;;4.38;100.00
41862;BME280;27537;57.134;-2.136;2023-03-04T00:12:38;102505.91;;;4.18;100.00
41862;BME280;27537;57.134;-2.136;2023-03-04T00:15:05;102543.19;;;4.25;100.00
41862;BME280;27537;57.134;-2.136;2023-03-04T00:17:32;102507.44;;;4.07;100.00
41862;BME280;27537;57.134;-2.136;2023-03-04T00:19:59;102549.41;;;4.36;100.00
41862;BME280;27537;57.134;-2.136;2023-03-04T00:22:25;102555.59;;;4.43;100.00
41862;BME280;27537;57.134;-2.136;2023-03-04T00:24:52;102555.56;;;4.42;100.00
41862;BME280;27537;57.134;-2.136;2023-03-04T00:27:19;102556.34;;;4.36;100.00
41862;BME280;27537;57.134;-2.136;2023-03-04T00:29:45;102509.06;;;4.04;100.00
41862;BME280;27537;57.134;-2.136;2023-03-04T00:32:12;102521.19;;;4.03;100.00
41862;BME280;27537;57.134;-2.136;2023-03-04T00:34:39;102544.09;;;4.27;100.00
41862;BME280;27537;57.134;-2.136;2023-03-04T00:37:06;102560.69;;;4.38;100.00
41862;BME280;27537;57.134;-2.136;2023-03-04T00:39:32;102541.59;;;4.35;100.00
41862;BME280;27537;57.134;-2.136;2023-03-04T00:41:59;102545.81;;;4.28;100.00
41862;BME280;27537;57.134;-2.136;2023-03-04T00:44:26;102557.91;;;4.28;100.00
41862;BME280;27537;57.134;-2.136;2023-03-04T00:46:52;102521.25;;;4.06;100.00
41862;BME280;27537;57.134;-2.136;2023-03-04T00:49:19;102540.41;;;4.14;100.00
41862;BME280;27537;57.134;-2.136;2023-03-04T00:51:46;102525.47;;;4.01;100.00
41862;BME280;27537;57.134;-2.136;2023-03-04T00:54:12;102543.84;;;4.13;100.00
41862;BME280;27537;57.134;-2.136;2023-03-04T00:56:39;102542.00;;;4.08;100.00
41862;BME280;27537;57.134;-2.136;2023-03-04T00:59:06;102512.47;;;3.99;100.00
41862;BME280;27537;57.134;-2.136;2023-03-04T01:01:32;102514.09;;;3.94;100.00
41862;BME280;27537;57.134;-2.136;2023-03-04T01:03:59;102492.34;;;3.85;100.00
41862;BME280;27537;57.134;-2.136;2023-03-04T01:06:26;102502.84;;;3.92;100.00
41862;BME280;27537;57.134;-2.136;2023-03-04T01:08:53;102543.91;;;4.16;100.00
41862;BME280;27537;57.134;-2.136;2023-03-04T01:11:19;102497.63;;;3.91;100.00
41862;BME280;27537;57.134;-2.136;2023-03-04T01:13:46;102490.56;;;3.82;100.00
41862;BME280;27537;57.134;-2.136;2023-03-04T01:16:14;102487.03;;;3.78;100.00
41862;BME280;27537;57.134;-2.136;2023-03-04T01:18:41;102536.00;;;4.10;100.00
41862;BME280;27537;57.134;-2.136;2023-03-04T01:21:08;102489.03;;;3.92;100.00
41862;BME280;27537;57.134;-2.136;2023-03-04T01:23:34;102482.00;;;3.86;100.00
41862;BME280;27537;57.134;-2.136;2023-03-04T01:26:01;102517.59;;;3.96;100.00
41862;BME280;27537;57.134;-2.136;2023-03-04T01:28:28;102477.41;;;3.71;100.00
41862;BME280;27537;57.134;-2.136;2023-03-04T01:30:55;102502.06;;;3.98;100.00
41862;BME280;27537;57.134;-2.136;2023-03-04T01:33:21;102461.69;;;3.62;100.00
41862;BME280;27537;57.134;-2.136;2023-03-04T01:35:48;102454.91;;;3.69;100.00
41862;BME280;27537;57.134;-2.136;2023-03-04T01:38:15;102521.31;;;4.09;100.00
41862;BME280;27537;57.134;-2.136;2023-03-04T01:40:42;102526.59;;;4.15;100.00
41862;BME280;27537;57.134;-2.136;2023-03-04T01:43:17;102505.56;;;4.00;100.00
41862;BME280;27537;57.134;-2.136;2023-03-04T01:45:47;102472.34;;;3.77;100.00
41862;BME280;27537;57.134;-2.136;2023-03-04T01:48:16;102498.44;;;3.87;100.00
41862;BME280;27537;57.134;-2.136;2023-03-04T01:50:43;102494.97;;;3.86;100.00
41862;BME280;27537;57.134;-2.136;2023-03-04T01:53:21;102512.53;;;4.03;100.00
41862;BME280;27537;57.134;-2.136;2023-03-04T01:55:49;102455.81;;;3.71;100.00
41862;BME280;27537;57.134;-2.136;2023-03-04T01:58:17;102513.50;;;4.08;100.00
41862;BME280;27537;57.134;-2.136;2023-03-04T02:00:44;102457.50;;;3.69;100.00
41862;BME280;27537;57.134;-2.136;2023-03-04T02:03:13;102484.78;;;3.97;100.00
41862;BME280;27537;57.134;-2.136;2023-03-04T02:05:43;102493.41;;;3.96;100.00
41862;BME280;27537;57.134;-2.136;2023-03-04T02:08:11;102498.72;;;4.02;100.00
41862;BME280;27537;57.134;-2.136;2023-03-04T02:10:41;102445.38;;;3.68;100.00
41862;BME280;27537;57.134;-2.136;2023-03-04T02:13:09;102427.88;;;3.56;100.00
41862;BME280;27537;57.134;-2.136;2023-03-04T02:15:36;102461.06;;;3.74;100.00
41862;BME280;27537;57.134;-2.136;2023-03-04T02:18:19;102482.13;;;3.94;100.00
41862;BME280;27537;57.134;-2.136;2023-03-04T02:23:36;102489.78;;;3.88;100.00
41862;BME280;27537;57.134;-2.136;2023-03-04T02:26:35;102481.38;;;3.99;100.00
41862;BME280;27537;57.134;-2.136;2023-03-04T02:29:02;102463.94;;;3.91;100.00
41862;BME280;27537;57.134;-2.136;2023-03-04T02:34:01;102432.56;;;3.74;100.00
41862;BME280;27537;57.134;-2.136;2023-03-04T02:36:29;102455.34;;;3.93;100.00
41862;BME280;27537;57.134;-2.136;2023-03-04T02:39:04;102421.28;;;3.70;100.00
41862;BME280;27537;57.134;-2.136;2023-03-04T02:41:33;102464.97;;;4.01;100.00
41862;BME280;27537;57.134;-2.136;2023-03-04T02:44:00;102439.69;;;3.87;100.00
41862;BME280;27537;57.134;-2.136;2023-03-04T02:46:26;102431.72;;;3.76;100.00
41862;BME280;27537;57.134;-2.136;2023-03-04T02:48:53;102455.19;;;3.86;100.00
41862;BME280;27537;57.134;-2.136;2023-03-04T02:51:23;102412.84;;;3.84;100.00
41862;BME280;27537;57.134;-2.136;2023-03-04T02:53:50;102420.59;;;3.82;100.00
41862;BME280;27537;57.134;-2.136;2023-03-04T02:56:19;102436.09;;;3.79;100.00
41862;BME280;27537;57.134;-2.136;2023-03-04T02:58:46;102425.53;;;3.67;100.00
41862;BME280;27537;57.134;-2.136;2023-03-04T03:01:13;102438.78;;;3.85;100.00
41862;BME280;27537;57.134;-2.136;2023-03-04T03:03:40;102427.34;;;3.72;100.00
41862;BME280;27537;57.134;-2.136;2023-03-04T03:06:07;102413.44;;;3.67;100.00
41862;BME280;27537;57.134;-2.136;2023-03-04T03:08:34;102408.06;;;3.56;100.00
41862;BME280;27537;57.134;-2.136;2023-03-04T03:11:01;102436.81;;;3.72;100.00
41862;BME280;27537;57.134;-2.136;2023-03-04T03:13:28;102385.44;;;3.46;100.00
41862;BME280;27537;57.134;-2.136;2023-03-04T03:15:54;102442.22;;;3.83;100.00
41862;BME280;27537;57.134;-2.136;2023-03-04T03:18:21;102421.28;;;3.70;100.00
41862;BME280;27537;57.134;-2.136;2023-03-04T03:20:48;102384.41;;;3.38;100.00
41862;BME280;27537;57.134;-2.136;2023-03-04T03:23:15;102362.31;;;3.11;100.00
41862;BME280;27537;57.134;-2.136;2023-03-04T03:25:43;102398.50;;;3.54;100.00
41862;BME280;27537;57.134;-2.136;2023-03-04T03:28:10;102405.41;;;3.53;100.00
41862;BME280;27537;57.134;-2.136;2023-03-04T03:30:36;102385.66;;;3.58;100.00
41862;BME280;27537;57.134;-2.136;2023-03-04T03:33:03;102367.09;;;3.35;100.00
41862;BME280;27537;57.134;-2.136;2023-03-04T03:35:30;102382.56;;;3.32;100.00
41862;BME280;27537;57.134;-2.136;2023-03-04T03:37:57;102436.97;;;3.79;100.00
41862;BME280;27537;57.134;-2.136;2023-03-04T03:40:23;102353.09;;;3.24;100.00
41862;BME280;27537;57.134;-2.136;2023-03-04T03:42:50;102381.91;;;3.42;100.00
41862;BME280;27537;57.134;-2.136;2023-03-04T03:45:17;102402.97;;;3.63;100.00
41862;BME280;27537;57.134;-2.136;2023-03-04T03:47:44;102383.78;;;3.51;100.00
41862;BME280;27537;57.134;-2.136;2023-03-04T03:50:11;102360.13;;;3.33;100.00
41862;BME280;27537;57.134;-2.136;2023-03-04T03:52:38;102360.72;;;3.18;100.00
41862;BME280;27537;57.134;-2.136;2023-03-04T03:55:04;102394.28;;;3.59;100.00
41862;BME280;27537;57.134;-2.136;2023-03-04T03:57:32;102376.06;;;3.53;100.00
41862;BME280;27537;57.134;-2.136;2023-03-04T03:59:58;102399.66;;;3.70;100.00
41862;BME280;27537;57.134;-2.136;2023-03-04T04:02:25;102360.41;;;3.48;100.00
41862;BME280;27537;57.134;-2.136;2023-03-04T04:04:52;102408.22;;;3.66;100.00
41862;BME280;27537;57.134;-2.136;2023-03-04T04:07:18;102368.84;;;3.35;100.00
41862;BME280;27537;57.134;-2.136;2023-03-04T04:09:45;102431.00;;;3.85;100.00
41862;BME280;27537;57.134;-2.136;2023-03-04T04:12:14;102432.44;;;3.68;100.00
41862;BME280;27537;57.134;-2.136;2023-03-04T04:14:42;102383.63;;;3.42;100.00
41862;BME280;27537;57.134;-2.136;2023-03-04T04:17:09;102340.22;;;3.29;100.00
41862;BME280;27537;57.134;-2.136;2023-03-04T04:19:36;102355.03;;;3.36;100.00
41862;BME280;27537;57.134;-2.136;2023-03-04T04:22:04;102391.75;;;3.62;100.00
41862;BME280;27537;57.134;-2.136;2023-03-04T04:24:30;102395.25;;;3.64;100.00
41862;BME280;27537;57.134;-2.136;2023-03-04T04:26:57;102404.22;;;3.83;100.00
41862;BME280;27537;57.134;-2.136;2023-03-04T04:29:24;102407.56;;;3.77;100.00
41862;BME280;27537;57.134;-2.136;2023-03-04T04:31:50;102347.34;;;3.40;100.00
41862;BME280;27537;57.134;-2.136;2023-03-04T04:34:17;102424.94;;;3.83;100.00
41862;BME280;27537;57.134;-2.136;2023-03-04T04:36:44;102340.31;;;3.33;100.00
41862;BME280;27537;57.134;-2.136;2023-03-04T04:39:10;102381.25;;;3.53;100.00
41862;BME280;27537;57.134;-2.136;2023-03-04T04:41:39;102377.97;;;3.63;100.00
41862;BME280;27537;57.134;-2.136;2023-03-04T04:44:07;102416.31;;;3.84;100.00
41862;BME280;27537;57.134;-2.136;2023-03-04T04:46:34;102334.03;;;3.20;100.00
41862;BME280;27537;57.134;-2.136;2023-03-04T04:49:01;102366.56;;;3.53;100.00
41862;BME280;27537;57.134;-2.136;2023-03-04T04:51:28;102356.72;;;3.34;100.00
41862;BME280;27537;57.134;-2.136;2023-03-04T04:53:55;102381.25;;;3.54;100.00
41862;BME280;27537;57.134;-2.136;2023-03-04T04:56:23;102342.13;;;3.39;100.00
41862;BME280;27537;57.134;-2.136;2023-03-04T04:58:54;102367.53;;;3.60;100.00
41862;BME280;27537;57.134;-2.136;2023-03-04T05:01:21;102364.78;;;3.49;100.00
41862;BME280;27537;57.134;-2.136;2023-03-04T05:03:49;102398.91;;;3.75;100.00
41862;BME280;27537;57.134;-2.136;2023-03-04T05:06:19;102365.59;;;3.48;100.00
41862;BME280;27537;57.134;-2.136;2023-03-04T05:08:46;102332.41;;;3.24;100.00
41862;BME280;27537;57.134;-2.136;2023-03-04T05:11:13;102362.91;;;3.42;100.00
41862;BME280;27537;57.134;-2.136;2023-03-04T05:13:40;102360.41;;;3.48;100.00
41862;BME280;27537;57.134;-2.136;2023-03-04T05:16:08;102362.19;;;3.49;100.00
41862;BME280;27537;57.134;-2.136;2023-03-04T05:18:35;102364.66;;;3.43;100.00
41862;BME280;27537;57.134;-2.136;2023-03-04T05:21:02;102386.28;;;3.47;100.00
41862;BME280;27537;57.134;-2.136;2023-03-04T05:23:35;102430.13;;;3.83;100.00
41862;BME280;27537;57.134;-2.136;2023-03-04T05:26:03;102426.47;;;3.73;100.00
41862;BME280;27537;57.134;-2.136;2023-03-04T05:28:30;102424.78;;;3.74;100.00
41862;BME280;27537;57.134;-2.136;2023-03-04T05:30:57;102368.16;;;3.47;100.00
41862;BME280;27537;57.134;-2.136;2023-03-04T05:33:24;102375.22;;;3.55;100.00
41862;BME280;27537;57.134;-2.136;2023-03-04T05:35:51;102352.59;;;3.44;100.00
41862;BME280;27537;57.134;-2.136;2023-03-04T05:38:20;102349.97;;;3.42;100.00
41862;BME280;27537;57.134;-2.136;2023-03-04T05:40:47;102396.22;;;3.71;100.00
41862;BME280;27537;57.134;-2.136;2023-03-04T05:43:15;102428.53;;;3.90;100.00
41862;BME280;27537;57.134;-2.136;2023-03-04T05:45:42;102344.66;;;3.36;100.00
41862;BME280;27537;57.134;-2.136;2023-03-04T05:48:08;102418.03;;;3.84;100.00
41862;BME280;27537;57.134;-2.136;2023-03-04T05:50:35;102301.84;;;3.06;100.00
41862;BME280;27537;57.134;-2.136;2023-03-04T05:53:02;102373.53;;;3.57;100.00
41862;BME280;27537;57.134;-2.136;2023-03-04T05:55:33;102410.25;;;3.84;100.00
41862;BME280;27537;57.134;-2.136;2023-03-04T05:57:59;102336.78;;;3.28;100.00
41862;BME280;27537;57.134;-2.136;2023-03-04T06:00:26;102355.25;;;3.48;100.00
41862;BME280;27537;57.134;-2.136;2023-03-04T06:02:53;102340.34;;;3.35;100.00
41862;BME280;27537;57.134;-2.136;2023-03-04T06:05:21;102379.44;;;3.50;100.00
41862;BME280;27537;57.134;-2.136;2023-03-04T06:07:48;102421.47;;;3.83;100.00
41862;BME280;27537;57.134;-2.136;2023-03-04T06:10:16;102377.81;;;3.55;100.00
41862;BME280;27537;57.134;-2.136;2023-03-04T06:12:43;102383.75;;;3.50;100.00
41862;BME280;27537;57.134;-2.136;2023-03-04T06:15:10;102413.72;;;3.83;100.00
41862;BME280;27537;57.134;-2.136;2023-03-04T06:17:38;102390.94;;;3.66;100.00
41862;BME280;27537;57.134;-2.136;2023-03-04T06:20:09;102426.75;;;3.89;100.00
41862;BME280;27537;57.134;-2.136;2023-03-04T06:22:36;102356.84;;;3.41;100.00
41862;BME280;27537;57.134;-2.136;2023-03-04T06:25:03;102356.84;;;3.40;100.00
41862;BME280;27537;57.134;-2.136;2023-03-04T06:27:30;102378.66;;;3.53;100.00
41862;BME280;27537;57.134;-2.136;2023-03-04T06:29:57;102371.75;;;3.53;100.00
41862;BME280;27537;57.134;-2.136;2023-03-04T06:32:24;102378.69;;;3.56;100.00
41862;BME280;27537;57.134;-2.136;2023-03-04T06:34:51;102435.38;;;3.88;100.00
41862;BME280;27537;57.134;-2.136;2023-03-04T06:37:18;102437.31;;;3.99;100.00
41862;BME280;27537;57.134;-2.136;2023-03-04T06:39:44;102392.16;;;3.85;100.00
41862;BME280;27537;57.134;-2.136;2023-03-04T06:42:12;102435.78;;;4.11;100.00
41862;BME280;27537;57.134;-2.136;2023-03-04T06:44:39;102396.47;;;3.85;100.00
41862;BME280;27537;57.134;-2.136;2023-03-04T06:47:06;102352.78;;;3.56;100.00
41862;BME280;27537;57.134;-2.136;2023-03-04T06:49:33;102378.09;;;3.71;100.00
41862;BME280;27537;57.134;-2.136;2023-03-04T06:52:00;102426.34;;;4.16;100.00
41862;BME280;27537;57.134;-2.136;2023-03-04T06:54:27;102375.59;;;3.77;100.00
41862;BME280;27537;57.134;-2.136;2023-03-04T06:56:53;102399.28;;;3.98;100.00
41862;BME280;27537;57.134;-2.136;2023-03-04T06:59:20;102388.72;;;3.86;100.00
41862;BME280;27537;57.134;-2.136;2023-03-04T07:01:47;102370.50;;;3.82;100.00
41862;BME280;27537;57.134;-2.136;2023-03-04T07:04:16;102411.66;;;4.16;100.00
41862;BME280;27537;57.134;-2.136;2023-03-04T07:06:43;102407.31;;;4.15;100.00
41862;BME280;27537;57.134;-2.136;2023-03-04T07:09:10;102400.28;;;4.08;100.00
41862;BME280;27537;57.134;-2.136;2023-03-04T07:11:37;102403.81;;;4.12;100.00
41862;BME280;27537;57.134;-2.136;2023-03-04T07:14:03;102431.97;;;4.44;100.00
41862;BME280;27537;57.134;-2.136;2023-03-04T07:16:30;102394.44;;;4.20;100.00
41862;BME280;27537;57.134;-2.136;2023-03-04T07:18:57;102454.78;;;4.66;100.00
41862;BME280;27537;57.134;-2.136;2023-03-04T07:21:24;102468.63;;;4.68;100.00
41862;BME280;27537;57.134;-2.136;2023-03-04T07:23:51;102426.69;;;4.37;100.00
41862;BME280;27537;57.134;-2.136;2023-03-04T07:26:18;102472.13;;;4.70;100.00
41862;BME280;27537;57.134;-2.136;2023-03-04T07:28:44;102470.41;;;4.71;100.00
41862;BME280;27537;57.134;-2.136;2023-03-04T07:33:44;102474.06;;;4.84;100.00
41862;BME280;27537;57.134;-2.136;2023-03-04T07:36:11;102401.81;;;4.50;100.00
41862;BME280;27537;57.134;-2.136;2023-03-04T07:38:45;102402.31;;;4.28;100.00
41862;BME280;27537;57.134;-2.136;2023-03-04T07:41:12;102454.47;;;4.45;100.00
41862;BME280;27537;57.134;-2.136;2023-03-04T07:43:39;102463.53;;;4.74;100.00
41862;BME280;27537;57.134;-2.136;2023-03-04T07:46:06;102480.97;;;4.85;100.00
41862;BME280;27537;57.134;-2.136;2023-03-04T07:48:33;102440.88;;;4.61;100.00
41862;BME280;27537;57.134;-2.136;2023-03-04T07:51:03;102487.09;;;4.90;100.00
41862;BME280;27537;57.134;-2.136;2023-03-04T07:53:31;102472.25;;;4.80;100.00
41862;BME280;27537;57.134;-2.136;2023-03-04T07:55:58;102483.72;;;4.94;100.00
41862;BME280;27537;57.134;-2.136;2023-03-04T07:58:28;102447.81;;;4.62;100.00
41862;BME280;27537;57.134;-2.136;2023-03-04T08:00:55;102440.88;;;4.63;100.00
41862;BME280;27537;57.134;-2.136;2023-03-04T08:03:21;102412.06;;;4.43;100.00
41862;BME280;27537;57.134;-2.136;2023-03-04T08:05:48;102457.69;;;4.89;100.00
41862;BME280;27537;57.134;-2.136;2023-03-04T08:08:16;102460.25;;;4.86;100.00
41862;BME280;27537;57.134;-2.136;2023-03-04T08:10:43;102472.53;;;4.98;100.00
41862;BME280;27537;57.134;-2.136;2023-03-04T08:13:10;102445.53;;;4.85;100.00
41862;BME280;27537;57.134;-2.136;2023-03-04T08:15:41;102479.44;;;4.98;100.00
41862;BME280;27537;57.134;-2.136;2023-03-04T08:18:08;102444.63;;;4.82;100.00
41862;BME280;27537;57.134;-2.136;2023-03-04T08:20:35;102398.38;;;4.53;100.00
41862;BME280;27537;57.134;-2.136;2023-03-04T08:23:02;102437.63;;;4.78;100.00
41862;BME280;27537;57.134;-2.136;2023-03-04T08:25:28;102413.97;;;4.56;100.00
41862;BME280;27537;57.134;-2.136;2023-03-04T08:27:55;102416.72;;;4.67;100.00
41862;BME280;27537;57.134;-2.136;2023-03-04T08:30:22;102422.28;;;4.94;100.00
41862;BME280;27537;57.134;-2.136;2023-03-04T08:32:49;102424.06;;;4.99;100.00
41862;BME280;27537;57.134;-2.136;2023-03-04T08:35:16;102407.63;;;4.98;100.00
41862;BME280;27537;57.134;-2.136;2023-03-04T08:37:42;102456.19;;;5.07;100.00
41862;BME280;27537;57.134;-2.136;2023-03-04T08:40:11;102471.22;;;5.32;100.00
41862;BME280;27537;57.134;-2.136;2023-03-04T08:42:38;102437.53;;;5.42;100.00
41862;BME280;27537;57.134;-2.136;2023-03-04T08:45:05;102423.09;;;5.65;100.00
41862;BME280;27537;57.134;-2.136;2023-03-04T08:47:32;102435.03;;;5.48;100.00
41862;BME280;27537;57.134;-2.136;2023-03-04T08:49:58;102477.19;;;6.03;100.00
41862;BME280;27537;57.134;-2.136;2023-03-04T08:52:27;102426.81;;;5.94;100.00
41862;BME280;27537;57.134;-2.136;2023-03-04T08:54:54;102428.72;;;6.10;100.00
41862;BME280;27537;57.134;-2.136;2023-03-04T08:57:22;102417.34;;;5.99;100.00
41862;BME280;27537;57.134;-2.136;2023-03-04T08:59:49;102437.34;;;6.04;100.00
41862;BME280;27537;57.134;-2.136;2023-03-04T09:02:16;102432.97;;;6.03;100.00
41862;BME280;27537;57.134;-2.136;2023-03-04T09:04:42;102414.56;;;5.82;100.00
41862;BME280;27537;57.134;-2.136;2023-03-04T09:07:09;102424.34;;;6.04;100.00
41862;BME280;27537;57.134;-2.136;2023-03-04T09:09:36;102435.47;;;5.93;100.00
41862;BME280;27537;57.134;-2.136;2023-03-04T09:12:03;102486.00;;;6.21;100.00
41862;BME280;27537;57.134;-2.136;2023-03-04T09:14:30;102444.25;;;6.01;100.00
41862;BME280;27537;57.134;-2.136;2023-03-04T09:16:58;102433.63;;;5.81;100.00
41862;BME280;27537;57.134;-2.136;2023-03-04T09:19:24;102454.53;;;5.93;100.00
41862;BME280;27537;57.134;-2.136;2023-03-04T09:21:53;102429.28;;;5.80;100.00
41862;BME280;27537;57.134;-2.136;2023-03-04T09:24:21;102427.53;;;5.80;100.00
41862;BME280;27537;57.134;-2.136;2023-03-04T09:26:52;102478.25;;;6.25;100.00
41862;BME280;27537;57.134;-2.136;2023-03-04T09:29:19;102493.09;;;6.39;100.00
41862;BME280;27537;57.134;-2.136;2023-03-04T09:31:46;102434.78;;;6.07;100.00
41862;BME280;27537;57.134;-2.136;2023-03-04T09:34:13;102458.09;;;5.97;100.00
41862;BME280;27537;57.134;-2.136;2023-03-04T09:36:39;102430.22;;;5.89;100.00
41862;BME280;27537;57.134;-2.136;2023-03-04T09:39:06;102454.78;;;6.18;100.00
41862;BME280;27537;57.134;-2.136;2023-03-04T09:41:40;102470.38;;;6.19;100.00
41862;BME280;27537;57.134;-2.136;2023-03-04T09:46:47;102483.53;;;6.36;100.00
41862;BME280;27537;57.134;-2.136;2023-03-04T09:49:15;102452.31;;;6.36;100.00
41862;BME280;27537;57.134;-2.136;2023-03-04T09:51:47;102476.84;;;6.71;100.00
41862;BME280;27537;57.134;-2.136;2023-03-04T09:54:26;102476.84;;;6.72;100.00
41862;BME280;27537;57.134;-2.136;2023-03-04T09:56:59;102459.59;;;6.83;100.00
41862;BME280;27537;57.134;-2.136;2023-03-04T09:59:44;102422.94;;;6.48;100.00
41862;BME280;27537;57.134;-2.136;2023-03-04T10:05:06;102436.34;;;7.39;100.00
41862;BME280;27537;57.134;-2.136;2023-03-04T10:07:36;102423.34;;;7.40;100.00
41862;BME280;27537;57.134;-2.136;2023-03-04T10:10:09;102449.38;;;7.30;100.00
41862;BME280;27537;57.134;-2.136;2023-03-04T10:12:41;102444.97;;;7.24;100.00
41862;BME280;27537;57.134;-2.136;2023-03-04T10:15:39;102458.09;;;7.52;100.00
41862;BME280;27537;57.134;-2.136;2023-03-04T10:20:55;102441.53;;;7.33;100.00
41862;BME280;27537;57.134;-2.136;2023-03-04T10:23:25;102465.97;;;7.58;100.00
41862;BME280;27537;57.134;-2.136;2023-03-04T10:25:53;102476.34;;;7.59;100.00
41862;BME280;27537;57.134;-2.136;2023-03-04T10:28:25;102469.41;;;7.55;100.00
41862;BME280;27537;57.134;-2.136;2023-03-04T10:33:24;102455.41;;;7.18;100.00
41862;BME280;27537;57.134;-2.136;2023-03-04T10:36:03;102402.31;;;6.83;100.00
41862;BME280;27537;57.134;-2.136;2023-03-04T10:38:34;102463.13;;;6.98;100.00
41862;BME280;27537;57.134;-2.136;2023-03-04T10:41:11;102405.50;;;6.36;100.00
41862;BME280;27537;57.134;-2.136;2023-03-04T10:43:39;102421.16;;;6.45;100.00
41862;BME280;27537;57.134;-2.136;2023-03-04T10:46:10;102428.94;;;6.44;100.00
41862;BME280;27537;57.134;-2.136;2023-03-04T10:48:40;102482.88;;;6.65;100.00
41862;BME280;27537;57.134;-2.136;2023-03-04T10:51:21;102448.13;;;6.60;100.00
41862;BME280;27537;57.134;-2.136;2023-03-04T10:56:38;102476.81;;;6.66;100.00
41862;BME280;27537;57.134;-2.136;2023-03-04T10:59:32;102490.56;;;6.46;100.00
41862;BME280;27537;57.134;-2.136;2023-03-04T11:02:05;102472.41;;;6.54;100.00
41862;BME280;27537;57.134;-2.136;2023-03-04T11:04:36;102455.03;;;6.50;100.00
41862;BME280;27537;57.134;-2.136;2023-03-04T11:07:08;102469.19;;;6.97;100.00
41862;BME280;27537;57.134;-2.136;2023-03-04T11:09:36;102468.28;;;6.93;100.00
41862;BME280;27537;57.134;-2.136;2023-03-04T11:12:09;102416.00;;;6.53;100.00
41862;BME280;27537;57.134;-2.136;2023-03-04T11:14:45;102458.88;;;7.15;100.00
41862;BME280;27537;57.134;-2.136;2023-03-04T11:17:22;102457.03;;;7.00;100.00
41862;BME280;27537;57.134;-2.136;2023-03-04T11:19:56;102414.44;;;6.84;100.00
41862;BME280;27537;57.134;-2.136;2023-03-04T11:22:24;102381.44;;;6.77;100.00
41862;BME280;27537;57.134;-2.136;2023-03-04T11:24:56;102386.66;;;6.80;100.00
41862;BME280;27537;57.134;-2.136;2023-03-04T11:27:33;102444.19;;;7.48;100.00
41862;BME280;27537;57.134;-2.136;2023-03-04T11:30:30;102433.78;;;7.48;100.00
41862;BME280;27537;57.134;-2.136;2023-03-04T11:33:13;102434.69;;;7.58;100.00
41862;BME280;27537;57.134;-2.136;2023-03-04T11:38:26;102353.78;;;7.10;100.00
41862;BME280;27537;57.134;-2.136;2023-03-04T11:41:02;102414.69;;;7.62;100.00
41862;BME280;27537;57.134;-2.136;2023-03-04T11:43:34;102418.19;;;7.84;100.00
41862;BME280;27537;57.134;-2.136;2023-03-04T11:46:12;102416.41;;;7.63;100.00
41862;BME280;27537;57.134;-2.136;2023-03-04T11:49:06;102409.47;;;7.66;100.00
41862;BME280;27537;57.134;-2.136;2023-03-04T11:51:44;102412.06;;;7.66;100.00
41862;BME280;27537;57.134;-2.136;2023-03-04T11:57:05;102412.88;;;7.34;100.00
41862;BME280;27537;57.134;-2.136;2023-03-04T12:02:33;102404.22;;;7.37;100.00
41862;BME280;27537;57.134;-2.136;2023-03-04T12:11:11;102400.50;;;6.72;100.00
41862;BME280;27537;57.134;-2.136;2023-03-04T12:30:34;102391.75;;;6.59;100.00
41862;BME280;27537;57.134;-2.136;2023-03-04T12:41:55;102341.47;;;6.64;100.00
41862;BME280;27537;57.134;-2.136;2023-03-04T12:44:19;102351.00;;;6.64;100.00
41862;BME280;27537;57.134;-2.136;2023-03-04T12:53:10;102386.00;;;7.46;100.00
41862;BME280;27537;57.134;-2.136;2023-03-04T12:55:43;102381.59;;;7.22;100.00
41862;BME280;27537;57.134;-2.136;2023-03-04T12:58:30;102394.63;;;7.17;100.00
41862;BME280;27537;57.134;-2.136;2023-03-04T13:08:58;102359.78;;;6.94;100.00
41862;BME280;27537;57.134;-2.136;2023-03-04T13:16:38;102324.00;;;6.40;100.00
41862;BME280;27537;57.134;-2.136;2023-03-04T13:22:32;102338.56;;;6.14;100.00
41862;BME280;27537;57.134;-2.136;2023-03-04T13:25:26;102382.91;;;6.31;100.00
41862;BME280;27537;57.134;-2.136;2023-03-04T13:59:12;102273.00;;;6.95;100.00
41862;BME280;27537;57.134;-2.136;2023-03-04T14:06:57;102315.59;;;7.26;100.00
41862;BME280;27537;57.134;-2.136;2023-03-04T14:09:28;102239.06;;;6.65;100.00
41862;BME280;27537;57.134;-2.136;2023-03-04T14:12:00;102293.00;;;7.05;100.00
41862;BME280;27537;57.134;-2.136;2023-03-04T14:14:52;102308.66;;;7.37;100.00
41862;BME280;27537;57.134;-2.136;2023-03-04T14:17:43;102239.94;;;6.64;100.00
41862;BME280;27537;57.134;-2.136;2023-03-04T14:20:25;102274.75;;;7.08;100.00
41862;BME280;27537;57.134;-2.136;2023-03-04T14:22:52;102271.16;;;6.54;100.00
41862;BME280;27537;57.134;-2.136;2023-03-04T14:25:22;102234.69;;;6.41;100.00
41862;BME280;27537;57.134;-2.136;2023-03-04T14:28:14;102303.41;;;7.08;100.00
41862;BME280;27537;57.134;-2.136;2023-03-04T14:30:53;102250.38;;;6.74;100.00
41862;BME280;27537;57.134;-2.136;2023-03-04T14:33:23;102255.59;;;6.83;100.00
41862;BME280;27537;57.134;-2.136;2023-03-04T14:35:53;102259.94;;;6.78;100.00
41862;BME280;27537;57.134;-2.136;2023-03-04T14:38:37;102230.38;;;6.56;100.00
41862;BME280;27537;57.134;-2.136;2023-03-04T14:41:14;102278.19;;;6.84;100.00
41862;BME280;27537;57.134;-2.136;2023-03-04T14:43:52;102234.75;;;6.68;100.00
41862;BME280;27537;57.134;-2.136;2023-03-04T14:46:23;102234.66;;;6.46;100.00
41862;BME280;27537;57.134;-2.136;2023-03-04T14:48:53;102273.81;;;6.81;100.00
41862;BME280;27537;57.134;-2.136;2023-03-04T14:54:28;102283.41;;;6.86;100.00